默认 日期 大小 文件数 浏览量 最新下载 xml
133-磁力链接相关资源由用户搜索指令自动获取,结果来源于网络,本站不存储任何资料,亦不承担任何责任,请于24小时内删除,搜索到8130个磁力,显示前4000条数据,用时5ms。
    {"01.jpg": 298008, "02.jpg": 459625, "03.jpg": 131326, "04.jpg": 417932, "05.jpg": 458838, "06.jpg": 490528, "07.jpg": 495113, "08.jpg": 512483, "09.jpg": 543829, "10.jpg": 538129, "11.jpg": 491625, "12.jpg": 538179, "13.jpg": 499252, "14.jpg": 548335, "15 ...
创建时间: 2021-10-20 08:09:02 大小:10.22 MB 文件数量:24 热度:6 最近下载:2025-02-18 23:20:08
    {"STARS-133-C.mp4": 8934657553, "有趣台妹小视频.mp4": 54376967, "乐播传媒[原创国产自拍].mp4": 12638560, "日韩欧美国产同步 2048综合论坛.html": 2671, "英皇体育-官方指定欧洲杯下注的网站.mp4": 45955165}
创建时间: 2021-10-21 19:47:14 大小:8.43 GB 文件数量:5 热度:153 最近下载:2025-09-14 04:50:01
    ... .mp3": 3649365, "07 - BPM-133 Rocking Music.mp3": 4651628, "14 ... .mp3": 2825520, "01 - BPM-133 Dragostea Din Tei.mp3": 2333198 ... .mp3": 3226311, "04 - BPM-133 Everytime (Hi-Bias remix).mp3 ... ).mp3": 3007041, "06 - BPM-133 Naughty Girl (Calderone Quayle club ...
创建时间: 2021-10-22 05:43:41 大小:51.65 MB 文件数量:17 热度:5 最近下载:2025-03-09 10:49:03
    ... 有你.url": 261}, "STARS-133-uncensored.mp4": 8868876827}
创建时间: 2021-10-22 07:25:30 大小:8.38 GB 文件数量:57 热度:342 最近下载:2025-10-18 01:04:02
    ... .net).URL": 231}, "STARS-133-uncensored-nyap2p.com.mp4": 5997501148 ...
创建时间: 2021-10-22 08:22:48 大小:5.66 GB 文件数量:34 热度:111 最近下载:2025-09-15 23:49:03
    {"art": {"back.jpg": 5561722, "front.jpg": 4182032}, "Info.docx": 72266, "foo_dr.txt": 1691, "CheckSum.md5": 507, "the lindsays - beethoven string quartets 7.md5": 134, "The Lindsays - Beethoven String Quartets - 7.iso": 2979758080}
创建时间: 2021-10-22 15:43:44 大小:2.78 GB 文件数量:7 热度:4 最近下载:2025-01-06 21:46:02
    {"HD_STARS-133-NC.mp4": 4412269765, "JAV Torrent 掲示板.URL": 210, "Please Seeding!_ 請幫忙做種,謝謝!.txt": 12}
创建时间: 2021-10-23 00:40:20 大小:4.11 GB 文件数量:3 热度:3 最近下载:2025-02-07 16:47:02

133

    {"介绍.txt": 243, "April Fools Prank Gets Swapdad": {"81e9613fe8105d6a3996ced940d3610a_103135wcoc44j6c7m1zijr.jpg": 69766, "82fc4a71d336428df31c09deca178f82_6d48424ee67ee71b82cd0eee43411142.jpg": 206020}, "April Fools Prank Gets Swapdad.mp4": 685453100, " ...
创建时间: 2021-10-23 09:40:40 大小:654.25 MB 文件数量:7 热度:3 最近下载:2025-01-03 14:48:01
    {"420MGMR-133.mp4": 3384987694, "最 新 位 址 獲 取.txt": 395, "社 區 最 新 情 報.mp4": 15089802, "有 趣 的 臺 灣 妹 妹 直 播.mp4": 15835847, "鮑 魚 直 播 盒 子,免 費 探 花 直 播 和 高 清 視 頻.html": 148}
创建时间: 2021-10-28 12:53:54 大小:3.18 GB 文件数量:5 热度:16 最近下载:2025-02-07 07:03:02
    ... .url": 253, "jav20s8.com@420MGMR-133.mp4": 1781467469, "2048地址 ...
创建时间: 2021-10-30 14:46:46 大小:1.74 GB 文件数量:24 热度:17 最近下载:2025-10-01 20:24:02
    ... .net).URL": 231}, "STARS-133-uncensored-nyap2p.com.mp4": 5997501010 ...
创建时间: 2021-10-31 08:51:14 大小:5.66 GB 文件数量:34 热度:94 最近下载:2025-08-28 08:50:03
    {"RARBG.txt": 31, "setup_infraspace_alpha_7.3.133_(64bit)_(50953).exe": 1181989568}
创建时间: 2021-11-01 08:11:02 大小:1.1 GB 文件数量:2 热度:3 最近下载:2025-01-09 21:49:01
    {"MBRAA-133.mp4": 5041188025, "Nyaa©Initial D.jpg": 266468}
创建时间: 2021-11-01 11:42:05 大小:4.7 GB 文件数量:2 热度:13 最近下载:2025-07-06 05:09:01
    {"hhd800.com@420MGMR-133.mp4": 3384987694}
创建时间: 2021-11-02 08:07:31 大小:3.15 GB 文件数量:1 热度:9 最近下载:2025-01-25 05:27:03
    {"InfraSpace_v7.3.133_setup.exe": 1987598, "InfraSpace_v7.3.133_setup-1.bin": 999168782}
创建时间: 2021-11-02 08:27:17 大小:954.78 MB 文件数量:2 热度:3 最近下载:2025-02-03 12:18:03
    {"鱼香肉丝.jpg": 784029, "[鱼香肉丝]SP-133.mp4": 2641998614, "_____padding_file_0_如果您看到此文件,请升级到BitComet(比特彗星)0.85或以上版本____": 412906}
创建时间: 2021-11-05 12:52:08 大小:2.46 GB 文件数量:3 热度:8 最近下载:2025-07-01 12:35:01
    {"hhd800.com@HUNTB-133.mp4": 10819958288}
创建时间: 2021-11-06 08:21:28 大小:10.08 GB 文件数量:1 热度:56 最近下载:2025-04-07 16:51:04
    {"hhd800.com@HUNTB-133.mp4": 3342220130}
创建时间: 2021-11-06 09:18:52 大小:3.11 GB 文件数量:1 热度:49 最近下载:2025-02-10 21:46:04
    ... .url": 253, "jav20s8.com@HUNTB-133.mp4": 10814852148, "2048地址 ...
创建时间: 2021-11-07 08:39:27 大小:10.11 GB 文件数量:22 热度:24 最近下载:2025-04-07 16:50:04
    ... ": 23814744, "movie.mp4": 6324978, "STARS-133.mp4": 2292319287, "STARS-133a.jpg ...
创建时间: 2021-11-07 09:44:22 大小:2.23 GB 文件数量:14 热度:27 最近下载:2025-08-16 04:21:02